Time;durP1;ratioP1;P1;durP2;ratioP2;P2;SDS_P1;SDS_P2;PMS_P1;PMS_P2;Temp;Humidity;BMP_temperature;BMP_pressure;BME280_temperature;BME280_humidity;BME280_pressure;Samples;Min_cycle;Max_cycle;Signal;HPM_P1;HPM_P2
2023/02/28 00:00:18;;;;;;;18.98;7.55;;;;;;;1.66;65.43;102493.09;5068134;28;20045;-54
2023/02/28 00:02:46;;;;;;;15.90;6.80;;;;;;;1.65;65.31;102490.53;5072470;28;20091;-54
2023/02/28 00:05:15;;;;;;;17.13;6.38;;;;;;;1.57;65.81;102495.19;5068571;28;20143;-55
2023/02/28 00:07:42;;;;;;;17.65;6.47;;;;;;;1.56;65.71;102493.47;5073039;28;20055;-54
2023/02/28 00:10:12;;;;;;;15.68;7.18;;;;;;;1.60;65.88;102487.22;5068398;28;20055;-54
2023/02/28 00:12:39;;;;;;;16.17;6.53;;;;;;;1.63;65.79;102484.50;5073043;28;20119;-54
2023/02/28 00:15:09;;;;;;;17.27;6.22;;;;;;;1.50;65.86;102484.09;5067304;28;20447;-54
2023/02/28 00:17:37;;;;;;;16.90;6.82;;;;;;;1.54;66.37;102494.38;5072841;28;20055;-55
2023/02/28 00:20:12;;;;;;;16.20;6.57;;;;;;;1.46;67.12;102488.56;5068306;28;20506;-54
2023/02/28 00:22:41;;;;;;;18.55;6.50;;;;;;;1.47;66.92;102490.25;5072357;28;20033;-54
2023/02/28 00:25:10;;;;;;;17.13;7.50;;;;;;;1.45;66.41;102489.44;5068288;28;20453;-54
2023/02/28 00:27:38;;;;;;;17.10;7.18;;;;;;;1.45;66.96;102491.22;5072330;28;20051;-54
2023/02/28 00:30:06;;;;;;;17.38;7.65;;;;;;;1.45;66.58;102497.31;5083886;28;20490;-55
2023/02/28 00:32:34;;;;;;;22.40;8.68;;;;;;;1.45;66.97;102489.44;5072448;28;20041;-55
2023/02/28 00:35:02;;;;;;;16.10;6.90;;;;;;;1.40;66.78;102490.53;5068196;28;20094;-54
2023/02/28 00:37:28;;;;;;;16.63;7.47;;;;;;;1.36;67.11;102492.38;5072012;28;20036;-54
2023/02/28 00:39:55;;;;;;;19.48;7.13;;;;;;;1.39;66.74;102494.91;5068128;28;20040;-55
2023/02/28 00:42:23;;;;;;;19.30;7.55;;;;;;;1.35;67.24;102493.31;5072020;28;20170;-55
2023/02/28 00:44:50;;;;;;;18.52;7.60;;;;;;;1.36;67.10;102497.63;5068081;28;20052;-54
2023/02/28 00:47:17;;;;;;;24.58;7.97;;;;;;;1.35;67.68;102495.94;5072180;28;20093;-55
2023/02/28 00:49:43;;;;;;;21.00;8.30;;;;;;;1.30;67.71;102490.00;5071757;28;20036;-54
2023/02/28 00:52:10;;;;;;;19.05;7.90;;;;;;;1.37;67.84;102490.66;5076341;28;20555;-54
2023/02/28 00:54:37;;;;;;;21.27;7.95;;;;;;;1.42;66.88;102484.34;5068578;28;20071;-55
2023/02/28 00:57:04;;;;;;;16.45;7.60;;;;;;;1.37;67.54;102480.19;5076077;28;20098;-54
2023/02/28 00:59:31;;;;;;;19.75;7.80;;;;;;;1.32;66.99;102483.78;5075739;28;20091;-55
2023/02/28 01:01:58;;;;;;;21.25;8.02;;;;;;;1.35;67.54;102488.09;5071030;28;20064;-55
2023/02/28 01:04:24;;;;;;;18.27;7.47;;;;;;;1.41;67.14;102489.63;5075954;28;20417;-55
2023/02/28 01:06:52;;;;;;;17.90;7.07;;;;;;;1.36;67.81;102494.16;5071413;28;20078;-54
2023/02/28 01:09:18;;;;;;;19.38;7.53;;;;;;;1.33;67.57;102490.75;5075995;28;20049;-55
2023/02/28 01:11:45;;;;;;;18.08;7.97;;;;;;;1.27;68.76;102485.69;5071816;28;20051;-55
2023/02/28 01:14:14;;;;;;;26.67;8.07;;;;;;;1.23;68.76;102491.94;5075775;28;20048;-55
2023/02/28 01:16:42;;;;;;;19.80;8.30;;;;;;;1.22;68.72;102498.09;5071105;28;20044;-54
2023/02/28 01:19:08;;;;;;;22.95;7.82;;;;;;;1.17;68.82;102492.16;5075773;28;20068;-54
2023/02/28 01:21:37;;;;;;;18.48;8.10;;;;;;;1.26;68.59;102491.84;5055447;28;20040;-55
2023/02/28 01:24:05;;;;;;;21.33;7.50;;;;;;;1.24;68.22;102484.97;5075292;28;20128;-54
2023/02/28 01:26:32;;;;;;;18.48;7.82;;;;;;;1.18;69.48;102490.38;5071216;28;20098;-54
2023/02/28 01:28:59;;;;;;;18.17;7.75;;;;;;;1.04;69.54;102488.25;5075264;28;20466;-55
2023/02/28 01:31:26;;;;;;;17.20;7.63;;;;;;;1.11;69.55;102487.09;5071249;28;20052;-54
2023/02/28 01:33:53;;;;;;;17.83;7.28;;;;;;;1.15;69.03;102486.13;5057668;28;20127;-55
2023/02/28 01:36:22;;;;;;;17.63;7.03;;;;;;;1.05;69.14;102489.94;5070867;28;20046;-55
2023/02/28 01:38:49;;;;;;;18.40;7.72;;;;;;;1.07;69.02;102483.75;5075192;28;20502;-54
2023/02/28 01:41:21;;;;;;;19.83;7.38;;;;;;;1.05;68.75;102485.56;5070824;28;20048;-54
2023/02/28 01:46:25;;;;;;;19.90;6.90;;;;;;;1.03;68.70;102482.13;5105999;27;20376;-54
2023/02/28 01:49:05;;;;;;;15.70;6.63;;;;;;;1.07;69.46;102485.50;5111012;28;20090;-53
2023/02/28 01:51:46;;;;;;;19.10;7.43;;;;;;;1.04;69.30;102481.25;5102674;28;20413;-54
2023/02/28 01:54:17;;;;;;;18.83;7.30;;;;;;;1.06;69.09;102481.19;5110980;28;20058;-56
2023/02/28 01:56:52;;;;;;;19.65;7.20;;;;;;;1.06;68.50;102475.97;5102991;28;20493;-54
2023/02/28 01:59:27;;;;;;;20.13;7.15;;;;;;;0.90;69.13;102483.44;5110593;28;20082;-54
2023/02/28 02:01:54;;;;;;;16.58;6.93;;;;;;;0.92;69.57;102489.47;5085488;28;20079;-53
2023/02/28 02:04:25;;;;;;;19.90;7.45;;;;;;;0.85;70.02;102487.97;5090195;28;20538;-53
2023/02/28 02:06:52;;;;;;;20.45;6.68;;;;;;;0.94;70.31;102480.66;5085556;28;20040;-54
2023/02/28 02:09:19;;;;;;;17.52;6.97;;;;;;;0.99;70.80;102475.31;5090197;28;20105;-53
2023/02/28 02:11:46;;;;;;;18.55;6.97;;;;;;;1.00;70.14;102471.81;5085544;28;20044;-54
2023/02/28 02:14:37;;;;;;;18.60;7.25;;;;;;;1.02;70.36;102474.34;5090243;28;20127;-53
2023/02/28 02:17:32;;;;;;;16.65;7.35;;;;;;;0.95;70.78;102474.56;5084042;28;20421;-54
2023/02/28 02:20:34;;;;;;;16.45;7.18;;;;;;;0.83;70.43;102477.56;5093965;28;20044;-54
2023/02/28 02:23:21;;;;;;;;;;;;;;;0.84;70.93;102473.19;5105700;28;20040;-54
2023/02/28 02:25:56;;;;;;;15.70;6.13;;;;;;;0.87;70.91;102478.31;5110033;28;19938;-52
2023/02/28 02:29:03;;;;;;;18.40;7.45;;;;;;;0.87;71.49;102468.69;5107348;28;20043;-53
2023/02/28 02:32:00;;;;;;;14.85;6.90;;;;;;;0.91;71.28;102465.09;5104227;28;20047;-53
2023/02/28 02:34:51;;;;;;;14.20;6.72;;;;;;;0.95;71.27;102466.72;5109832;28;20044;-52
2023/02/28 02:37:33;;;;;;;24.63;7.40;;;;;;;1.02;70.56;102463.88;5104858;28;20048;-53
2023/02/28 02:40:09;;;;;;;17.77;7.20;;;;;;;0.98;70.49;102465.75;5110267;28;20500;-54
2023/02/28 02:45:45;;;;;;;19.92;8.00;;;;;;;0.76;70.88;102453.41;5110955;27;20372;-55
2023/02/28 02:48:17;;;;;;;16.48;7.18;;;;;;;0.55;71.49;102447.06;5106304;28;20067;-54
2023/02/28 02:50:51;;;;;;;19.15;7.82;;;;;;;0.56;71.39;102447.91;5111176;28;20048;-52
2023/02/28 02:53:25;;;;;;;19.77;7.70;;;;;;;0.63;71.61;102441.59;5106780;28;20085;-53
2023/02/28 02:55:54;;;;;;;17.80;7.93;;;;;;;0.73;71.83;102447.41;5110724;28;20056;-54
2023/02/28 02:58:27;;;;;;;15.68;7.15;;;;;;;0.73;72.21;102445.66;5104139;28;20089;-53
2023/02/28 03:01:00;;;;;;;20.33;7.70;;;;;;;0.81;71.46;102445.41;5110553;28;20537;-53
2023/02/28 03:03:30;;;;;;;19.05;7.28;;;;;;;0.77;71.88;102452.47;5106121;28;20546;-53
2023/02/28 03:05:58;;;;;;;18.40;7.63;;;;;;;0.73;71.90;102444.78;5110619;28;20401;-53
2023/02/28 03:08:27;;;;;;;16.13;7.13;;;;;;;0.71;71.64;102454.41;5105823;28;20130;-54
2023/02/28 03:10:58;;;;;;;18.63;7.95;;;;;;;0.72;71.94;102456.97;5110658;28;20040;-54
2023/02/28 03:13:52;;;;;;;21.13;7.63;;;;;;;0.75;72.23;102453.44;5104386;28;20350;-54
2023/02/28 03:17:00;;;;;;;16.25;6.97;;;;;;;0.73;72.26;102453.47;5110240;28;20063;-53
2023/02/28 03:20:06;;;;;;;19.70;8.05;;;;;;;0.61;72.59;102453.84;5105969;28;20040;-52
2023/02/28 03:25:44;;;;;;;21.98;7.85;;;;;;;0.42;73.82;102443.13;5110846;27;20870;-55
2023/02/28 03:28:29;;;;;;;23.83;8.27;;;;;;;0.57;73.35;102444.41;5106314;28;20489;-53
2023/02/28 03:31:28;;;;;;;18.20;7.75;;;;;;;0.50;72.93;102445.50;5111031;28;20497;-53
2023/02/28 03:34:06;;;;;;;20.88;7.57;;;;;;;0.38;73.21;102439.75;5105927;28;20036;-53
2023/02/28 03:36:43;;;;;;;18.85;8.05;;;;;;;0.48;72.67;102442.09;5110324;28;20101;-54
2023/02/28 03:39:16;;;;;;;17.10;8.02;;;;;;;0.51;72.61;102439.38;5105844;28;20386;-55
2023/02/28 03:41:53;;;;;;;16.85;7.25;;;;;;;0.53;72.49;102443.66;5110660;28;20040;-55
2023/02/28 03:44:27;;;;;;;15.93;7.22;;;;;;;0.54;72.20;102441.88;5106074;28;20046;-55
2023/02/28 03:47:02;;;;;;;17.02;7.43;;;;;;;0.50;71.86;102446.34;5109793;28;20413;-55
2023/02/28 03:49:35;;;;;;;16.38;7.60;;;;;;;0.47;71.78;102450.81;5107225;28;20420;-55
2023/02/28 03:52:05;;;;;;;14.88;6.20;;;;;;;0.31;71.10;102455.63;5103922;28;20097;-55
2023/02/28 03:54:38;;;;;;;17.90;7.50;;;;;;;0.27;71.11;102449.66;5109980;28;20071;-55
2023/02/28 03:57:15;;;;;;;17.17;6.63;;;;;;;0.33;69.91;102451.25;5109066;28;20075;-55
2023/02/28 03:59:47;;;;;;;16.48;6.70;;;;;;;0.42;70.41;102444.88;5106036;28;20055;-55
2023/02/28 04:02:14;;;;;;;13.13;6.60;;;;;;;0.28;69.70;102455.75;5109839;28;20101;-56
2023/02/28 04:04:44;;;;;;;17.23;7.20;;;;;;;0.38;69.96;102458.03;5105704;28;20093;-55
2023/02/28 04:07:12;;;;;;;18.85;6.28;;;;;;;0.46;69.80;102459.56;5109881;28;20043;-55
2023/02/28 04:09:38;;;;;;;13.95;6.18;;;;;;;0.25;68.79;102458.44;5105569;28;20098;-54
2023/02/28 04:12:05;;;;;;;16.70;6.68;;;;;;;0.09;70.17;102461.50;5110092;28;20052;-55
2023/02/28 04:14:32;;;;;;;15.38;6.38;;;;;;;0.13;69.87;102460.50;5105479;28;20048;-55
2023/02/28 04:16:59;;;;;;;17.58;6.88;;;;;;;0.17;69.65;102458.69;5110028;28;20058;-56
2023/02/28 04:19:25;;;;;;;17.70;6.75;;;;;;;0.23;69.49;102463.69;5105615;28;20048;-55
2023/02/28 04:21:53;;;;;;;14.32;6.10;;;;;;;0.23;69.10;102458.47;5109911;28;20054;-55
2023/02/28 04:24:23;;;;;;;15.00;6.05;;;;;;;0.21;68.81;102459.44;5104909;28;20453;-55
2023/02/28 04:26:53;;;;;;;17.23;6.57;;;;;;;0.24;69.52;102465.44;5109512;28;20404;-55
2023/02/28 04:32:01;;;;;;;19.65;6.95;;;;;;;0.33;68.81;102470.38;5110632;27;20391;-55
2023/02/28 04:34:30;;;;;;;17.85;6.85;;;;;;;0.21;69.33;102469.88;5106415;28;20115;-53
2023/02/28 04:36:58;;;;;;;16.08;6.40;;;;;;;0.13;69.24;102468.34;5110949;28;20052;-54
2023/02/28 04:39:38;;;;;;;14.35;6.65;;;;;;;0.13;69.05;102472.72;5106552;28;20405;-55
2023/02/28 04:42:05;;;;;;;16.48;6.47;;;;;;;0.08;68.93;102469.38;5110945;28;20071;-55
2023/02/28 04:44:32;;;;;;;15.05;6.30;;;;;;;0.01;69.03;102463.47;5105876;28;20044;-55
2023/02/28 04:46:58;;;;;;;14.85;6.75;;;;;;;0.14;69.02;102475.25;5110802;28;20044;-54
2023/02/28 04:49:26;;;;;;;13.88;6.28;;;;;;;0.24;69.15;102470.66;5105745;28;20044;-56
2023/02/28 04:51:52;;;;;;;15.45;6.32;;;;;;;0.30;68.82;102467.00;5110337;28;20040;-55
2023/02/28 04:54:19;;;;;;;12.18;5.90;;;;;;;0.24;68.60;102475.00;5105973;28;20048;-55
2023/02/28 04:56:48;;;;;;;14.52;6.22;;;;;;;0.19;68.98;102475.16;5110291;28;20047;-55
2023/02/28 04:59:15;;;;;;;20.00;6.30;;;;;;;0.19;68.68;102476.00;5105286;28;20040;-55
2023/02/28 05:01:46;;;;;;;13.70;6.10;;;;;;;0.03;69.27;102469.50;5107192;28;20485;-53
2023/02/28 05:04:13;;;;;;;18.65;6.35;;;;;;;0.10;69.17;102481.47;5110151;28;20036;-55
2023/02/28 05:06:40;;;;;;;17.48;6.50;;;;;;;0.09;68.80;102477.19;5105431;28;20054;-55
2023/02/28 05:09:06;;;;;;;16.33;6.13;;;;;;;0.11;68.60;102485.81;5110172;28;20044;-54
2023/02/28 05:11:34;;;;;;;13.65;5.72;;;;;;;0.05;68.13;102479.91;5105726;28;20093;-55
2023/02/28 05:14:04;;;;;;;16.67;6.32;;;;;;;-0.03;67.40;102478.34;5109602;28;20043;-55
2023/02/28 05:16:31;;;;;;;12.25;5.82;;;;;;;0.03;67.79;102477.31;5104170;28;20109;-55
2023/02/28 05:18:58;;;;;;;16.13;5.72;;;;;;;-0.01;66.75;102478.31;5109892;28;20067;-55
2023/02/28 05:21:31;;;;;;;12.90;5.40;;;;;;;-0.14;67.53;102476.97;5105619;28;20489;-54
2023/02/28 05:24:01;;;;;;;12.05;6.00;;;;;;;-0.05;67.53;102474.94;5110194;28;20044;-54
2023/02/28 05:26:28;;;;;;;17.88;6.10;;;;;;;-0.08;67.39;102476.78;5105291;28;20413;-55
2023/02/28 05:28:55;;;;;;;14.30;5.97;;;;;;;-0.07;67.28;102479.34;5109893;28;20048;-54
2023/02/28 05:31:23;;;;;;;13.48;6.60;;;;;;;-0.05;66.76;102482.78;5105206;28;20040;-55
2023/02/28 05:33:50;;;;;;;17.30;6.22;;;;;;;-0.05;67.04;102472.34;5109962;28;20134;-54
2023/02/28 05:36:17;;;;;;;20.80;6.38;;;;;;;-0.01;66.24;102479.16;5104931;28;20078;-55
2023/02/28 05:38:46;;;;;;;17.23;6.22;;;;;;;-0.15;66.27;102483.06;5109999;28;20048;-54
2023/02/28 05:41:14;;;;;;;16.08;5.82;;;;;;;-0.12;66.21;102486.44;5104253;28;20040;-55
2023/02/28 05:43:40;;;;;;;14.65;6.10;;;;;;;-0.06;66.62;102485.41;5095283;28;20044;-55
2023/02/28 05:46:10;;;;;;;17.85;6.20;;;;;;;-0.16;66.42;102490.03;5091638;28;20375;-55
2023/02/28 05:48:38;;;;;;;22.52;6.30;;;;;;;-0.07;66.05;102491.56;5096121;28;20048;-54
2023/02/28 05:51:06;;;;;;;15.60;6.18;;;;;;;-0.05;66.28;102490.59;5091197;28;20516;-55
2023/02/28 05:53:34;;;;;;;15.25;5.90;;;;;;;-0.02;65.92;102498.34;5098657;28;20492;-54
2023/02/28 05:56:01;;;;;;;13.65;6.35;;;;;;;-0.06;66.10;102494.09;5111874;28;20039;-56
2023/02/28 05:58:30;;;;;;;15.88;6.47;;;;;;;-0.14;65.69;102498.69;5115063;28;20040;-55
2023/02/28 06:00:58;;;;;;;13.07;5.70;;;;;;;-0.08;66.25;102497.66;5094288;28;20040;-55
2023/02/28 06:03:25;;;;;;;20.52;6.40;;;;;;;-0.09;65.51;102499.41;5094558;28;20092;-55
2023/02/28 06:05:53;;;;;;;17.45;5.72;;;;;;;-0.30;65.77;102500.00;5095737;28;20520;-56
2023/02/28 06:08:20;;;;;;;13.27;6.00;;;;;;;-0.25;65.21;102500.72;5091453;28;20036;-54
2023/02/28 06:10:47;;;;;;;12.55;5.53;;;;;;;-0.22;64.68;102503.22;5095342;28;20440;-53
2023/02/28 06:13:14;;;;;;;13.88;5.68;;;;;;;-0.24;65.38;102505.91;5090515;28;20400;-52
2023/02/28 06:15:41;;;;;;;15.18;5.95;;;;;;;-0.24;65.52;102512.84;5095384;28;20040;-55
2023/02/28 06:18:09;;;;;;;15.85;5.97;;;;;;;-0.26;65.01;102507.69;5090321;28;20052;-55
2023/02/28 06:20:36;;;;;;;12.77;5.55;;;;;;;-0.24;65.13;102512.84;5094897;28;20093;-55
2023/02/28 06:23:02;;;;;;;11.45;5.47;;;;;;;-0.21;64.98;102510.19;5088941;28;20044;-55
2023/02/28 06:25:29;;;;;;;12.43;5.63;;;;;;;-0.07;65.45;102515.88;5095363;28;20051;-56
2023/02/28 06:27:56;;;;;;;14.43;6.20;;;;;;;-0.13;65.38;102513.41;5090272;28;20502;-55
2023/02/28 06:30:26;;;;;;;13.82;5.78;;;;;;;-0.21;64.83;102521.47;5094235;28;20048;-55
2023/02/28 06:32:54;;;;;;;14.05;5.75;;;;;;;-0.15;65.24;102524.81;5090531;28;20105;-55
2023/02/28 06:35:22;;;;;;;15.95;6.72;;;;;;;-0.22;65.24;102521.50;5093988;28;20401;-54
2023/02/28 06:37:49;;;;;;;13.95;6.50;;;;;;;-0.20;64.90;102527.53;5089922;28;20048;-55
2023/02/28 06:40:16;;;;;;;18.33;6.30;;;;;;;-0.21;64.43;102520.59;5094955;28;20052;-55
2023/02/28 06:42:42;;;;;;;12.38;6.30;;;;;;;-0.07;64.88;102520.25;5089985;28;20044;-54
2023/02/28 06:45:10;;;;;;;12.60;5.25;;;;;;;-0.06;63.69;102525.41;5093332;28;20400;-54
2023/02/28 06:47:39;;;;;;;16.88;5.88;;;;;;;-0.07;64.13;102528.94;5089274;28;20050;-54
2023/02/28 06:50:11;;;;;;;13.10;5.97;;;;;;;-0.05;62.62;102529.75;5094235;28;20056;-54
2023/02/28 06:52:38;;;;;;;14.70;6.20;;;;;;;0.01;62.98;102536.53;5089432;28;20118;-55
2023/02/28 06:55:06;;;;;;;15.82;5.72;;;;;;;-0.21;62.39;102538.88;5093241;28;20044;-54
2023/02/28 06:57:35;;;;;;;14.73;5.45;;;;;;;-0.05;62.85;102540.16;5089654;28;20630;-54
2023/02/28 07:00:07;;;;;;;15.82;6.97;;;;;;;0.08;61.74;102545.91;5094046;28;20044;-55
2023/02/28 07:02:35;;;;;;;13.82;5.85;;;;;;;0.03;61.38;102541.72;5086240;28;20036;-55
2023/02/28 07:05:02;;;;;;;13.57;5.53;;;;;;;-0.18;61.15;102549.22;5094064;28;20097;-55
2023/02/28 07:07:29;;;;;;;11.38;5.18;;;;;;;-0.14;62.04;102552.63;5081929;28;20324;-54
2023/02/28 07:09:56;;;;;;;15.82;6.13;;;;;;;0.01;60.68;102552.19;5089589;28;20091;-54
2023/02/28 07:12:23;;;;;;;15.57;5.97;;;;;;;-0.05;59.99;102545.38;5069233;28;20230;-53
2023/02/28 07:14:50;;;;;;;14.35;6.05;;;;;;;0.13;60.75;102551.03;5055897;28;20062;-55
2023/02/28 07:17:16;;;;;;;16.13;5.55;;;;;;;0.22;60.72;102552.50;5070933;28;20052;-54
2023/02/28 07:19:43;;;;;;;11.63;5.30;;;;;;;0.22;59.29;102552.50;5074255;28;20052;-54
2023/02/28 07:22:09;;;;;;;15.32;5.05;;;;;;;0.18;59.31;102547.38;5091723;28;20066;-53
2023/02/28 07:24:36;;;;;;;13.93;5.40;;;;;;;0.21;59.39;102551.66;5092304;28;20093;-55
2023/02/28 07:27:03;;;;;;;13.35;5.60;;;;;;;0.34;59.77;102547.78;5093585;28;20044;-54
2023/02/28 07:29:29;;;;;;;14.02;5.93;;;;;;;0.36;58.71;102550.34;5090413;28;20082;-56
2023/02/28 07:31:56;;;;;;;16.80;5.50;;;;;;;0.36;58.29;102556.44;5093433;28;20052;-55
2023/02/28 07:34:23;;;;;;;12.02;5.70;;;;;;;0.39;58.68;102555.50;5089496;28;20051;-53
2023/02/28 07:36:53;;;;;;;13.98;5.60;;;;;;;0.47;58.59;102557.88;5094016;28;20055;-54
2023/02/28 07:39:21;;;;;;;14.25;5.72;;;;;;;0.46;57.29;102561.41;5089389;28;20055;-54
2023/02/28 07:41:48;;;;;;;13.50;5.82;;;;;;;0.52;56.35;102562.06;5093846;28;20043;-53
2023/02/28 07:44:15;;;;;;;13.93;6.18;;;;;;;0.64;57.05;102560.88;5087604;28;20047;-54
2023/02/28 07:46:42;;;;;;;12.27;5.55;;;;;;;0.72;55.76;102569.31;5093627;28;20127;-54
2023/02/28 07:49:09;;;;;;;11.65;5.38;;;;;;;0.73;55.55;102568.44;5089118;28;20128;-53
2023/02/28 07:51:35;;;;;;;15.38;5.97;;;;;;;0.77;56.47;102567.44;5093577;28;20040;-54
2023/02/28 07:54:02;;;;;;;12.18;5.35;;;;;;;0.86;54.89;102576.75;5084831;28;20445;-55
2023/02/28 07:56:29;;;;;;;13.18;5.00;;;;;;;0.98;55.37;102570.28;5093806;28;20046;-55
2023/02/28 07:58:56;;;;;;;10.30;5.03;;;;;;;1.17;53.23;102577.59;5088910;28;20116;-51
2023/02/28 08:01:23;;;;;;;18.23;5.35;;;;;;;1.39;53.26;102582.97;5092779;28;20432;-53
2023/02/28 08:03:50;;;;;;;12.05;5.15;;;;;;;1.36;52.09;102570.00;5085537;28;20048;-54
2023/02/28 08:06:20;;;;;;;10.30;4.95;;;;;;;1.48;51.19;102580.06;5092226;28;20051;-54
2023/02/28 08:08:48;;;;;;;11.48;4.90;;;;;;;1.54;51.59;102583.31;5089079;28;20405;-54
2023/02/28 08:11:16;;;;;;;14.38;4.82;;;;;;;1.48;50.11;102577.44;5093541;28;20036;-55
2023/02/28 08:13:44;;;;;;;10.93;4.53;;;;;;;1.71;49.83;102585.38;5088841;28;20122;-53
2023/02/28 08:16:17;;;;;;;11.77;4.75;;;;;;;1.80;49.69;102576.38;5093472;28;20085;-54
2023/02/28 08:18:43;;;;;;;10.93;4.45;;;;;;;1.97;49.84;102580.19;5088463;28;20051;-53
2023/02/28 08:21:10;;;;;;;13.18;6.22;;;;;;;2.08;48.12;102583.25;5092992;28;20040;-55
2023/02/28 08:23:37;;;;;;;13.30;5.47;;;;;;;2.18;47.93;102579.41;5088575;28;20040;-53
2023/02/28 08:26:05;;;;;;;11.50;5.10;;;;;;;2.21;48.97;102581.06;5092988;28;20405;-54
2023/02/28 08:28:33;;;;;;;12.20;5.22;;;;;;;2.39;48.14;102582.19;5088583;28;20044;-54
2023/02/28 08:31:01;;;;;;;18.05;4.90;;;;;;;2.42;48.04;102588.16;5092820;28;20052;-53
2023/02/28 08:33:28;;;;;;;10.88;4.53;;;;;;;2.22;47.63;102586.25;5088785;28;20500;-54
2023/02/28 08:35:56;;;;;;;13.27;4.70;;;;;;;2.18;47.90;102584.63;5093167;28;20048;-54
2023/02/28 08:38:24;;;;;;;14.18;4.80;;;;;;;2.29;47.98;102587.75;5088373;28;20044;-54
2023/02/28 08:40:58;;;;;;;10.73;4.53;;;;;;;2.18;46.49;102599.50;5093165;28;20050;-54
2023/02/28 08:43:25;;;;;;;12.18;4.15;;;;;;;2.37;45.75;102582.22;5088829;28;20066;-55
2023/02/28 08:45:53;;;;;;;10.75;4.65;;;;;;;2.39;46.89;102582.19;5092833;28;20036;-54
2023/02/28 08:48:19;;;;;;;12.68;4.25;;;;;;;2.43;47.37;102587.22;5088557;28;20489;-56
2023/02/28 08:51:05;;;;;;;16.17;4.20;;;;;;;2.34;46.10;102584.94;5092676;28;20063;-54
2023/02/28 08:53:35;;;;;;;11.32;4.38;;;;;;;2.49;45.75;102584.41;5087421;28;20044;-54
2023/02/28 08:56:05;;;;;;;10.32;4.10;;;;;;;2.67;46.27;102584.59;5092634;28;20493;-54
2023/02/28 08:58:32;;;;;;;10.88;4.50;;;;;;;2.66;46.64;102583.75;5088557;28;20036;-56
2023/02/28 09:00:58;;;;;;;11.73;4.63;;;;;;;2.32;45.34;102586.78;5092441;28;20052;-54
2023/02/28 09:03:26;;;;;;;10.23;3.67;;;;;;;2.29;44.91;102582.50;5088272;28;20047;-55
2023/02/28 09:05:56;;;;;;;10.85;3.80;;;;;;;2.51;46.08;102586.97;5089439;28;20044;-54
2023/02/28 09:08:25;;;;;;;8.05;3.75;;;;;;;2.42;44.07;102584.66;5092933;28;20425;-55
2023/02/28 09:10:52;;;;;;;11.52;4.00;;;;;;;2.38;45.02;102585.69;5088249;28;20040;-55
2023/02/28 09:13:19;;;;;;;9.32;3.83;;;;;;;2.34;44.42;102578.84;5092784;28;20405;-54
2023/02/28 09:15:46;;;;;;;8.43;3.70;;;;;;;2.32;44.28;102573.66;5087997;28;20044;-54
2023/02/28 09:18:13;;;;;;;9.20;3.80;;;;;;;2.42;44.08;102575.06;5092628;28;20100;-52
2023/02/28 09:20:41;;;;;;;14.25;3.80;;;;;;;2.46;44.13;102568.78;5085145;28;20039;-54
2023/02/28 09:23:10;;;;;;;10.70;3.95;;;;;;;2.49;43.51;102576.53;5093381;28;20040;-54
2023/02/28 09:25:37;;;;;;;10.15;3.95;;;;;;;2.66;43.79;102570.66;5077339;28;20045;-54
2023/02/28 09:28:05;;;;;;;11.15;3.72;;;;;;;2.85;43.70;102567.34;5076257;28;20056;-54
2023/02/28 09:30:31;;;;;;;8.38;3.60;;;;;;;2.93;43.45;102564.41;5070602;28;20052;-53
2023/02/28 09:32:58;;;;;;;7.85;3.22;;;;;;;3.04;43.13;102564.88;5083116;28;20045;-54
2023/02/28 09:35:26;;;;;;;11.55;3.90;;;;;;;3.04;42.06;102570.09;5089407;28;20068;-53
2023/02/28 09:37:53;;;;;;;9.52;3.30;;;;;;;3.11;42.34;102574.19;5095807;28;20048;-55
2023/02/28 09:40:23;;;;;;;9.43;3.55;;;;;;;3.41;42.93;102571.25;5071275;28;20086;-55
2023/02/28 09:42:54;;;;;;;8.55;3.45;;;;;;;3.51;42.26;102563.84;5074993;28;20120;-55
2023/02/28 09:45:33;;;;;;;8.10;3.33;;;;;;;3.39;41.81;102568.69;5087129;28;20055;-55
2023/02/28 09:48:06;;;;;;;9.15;3.55;;;;;;;3.41;41.49;102568.63;5073752;28;20048;-55
2023/02/28 09:50:39;;;;;;;10.25;3.80;;;;;;;3.20;42.84;102570.34;5079400;28;20051;-55
2023/02/28 09:53:19;;;;;;;8.50;3.30;;;;;;;3.46;41.71;102567.50;5092769;28;20401;-55
2023/02/28 09:55:51;;;;;;;14.52;3.33;;;;;;;3.54;43.06;102567.19;5085281;28;20556;-55
2023/02/28 09:58:28;;;;;;;8.05;3.40;;;;;;;3.75;41.08;102573.31;5092639;28;20047;-54
2023/02/28 10:01:03;;;;;;;11.20;3.85;;;;;;;3.81;41.06;102569.59;5074316;28;20174;-55
2023/02/28 10:03:46;;;;;;;11.10;3.30;;;;;;;3.81;39.72;102572.19;5075195;28;20044;-55
2023/02/28 10:06:19;;;;;;;9.82;3.75;;;;;;;4.15;40.03;102558.47;5067478;28;20078;-55
2023/02/28 10:09:09;;;;;;;9.38;3.65;;;;;;;4.49;40.67;102559.56;5079836;28;20044;-55
2023/02/28 10:11:38;;;;;;;9.50;3.65;;;;;;;4.41;39.55;102567.78;5082057;28;20118;-54
2023/02/28 10:14:14;;;;;;;9.65;3.58;;;;;;;4.28;40.73;102566.66;5086286;28;20402;-55
2023/02/28 10:16:47;;;;;;;10.05;3.70;;;;;;;4.88;40.01;102561.28;5071520;28;20047;-54
2023/02/28 10:19:21;;;;;;;9.05;4.10;;;;;;;5.22;39.20;102559.66;5073515;28;20074;-55
2023/02/28 10:21:59;;;;;;;15.10;3.60;;;;;;;5.54;40.09;102562.47;5089028;28;20036;-54
2023/02/28 10:24:32;;;;;;;8.68;2.80;;;;;;;5.57;37.86;102557.06;5094298;28;20131;-54
2023/02/28 10:27:04;;;;;;;8.57;3.30;;;;;;;6.52;35.28;102565.31;5084612;28;20047;-55
2023/02/28 10:29:32;;;;;;;8.88;3.10;;;;;;;6.69;35.16;102566.16;5074109;28;20048;-55
2023/02/28 10:32:02;;;;;;;8.55;3.28;;;;;;;6.97;33.74;102560.22;5030166;28;20084;-54
2023/02/28 10:34:28;;;;;;;9.18;3.78;;;;;;;7.57;32.35;102555.94;5033912;28;20518;-55
2023/02/28 10:36:55;;;;;;;7.80;3.08;;;;;;;7.69;33.37;102557.84;5034366;28;20457;-55
2023/02/28 10:39:41;;;;;;;7.25;2.88;;;;;;;9.24;30.72;102565.91;5054273;28;20175;-54
2023/02/28 10:42:25;;;;;;;10.55;3.10;;;;;;;10.14;28.91;102555.41;5043264;28;20125;-56
2023/02/28 10:45:16;;;;;;;11.45;4.88;;;;;;;11.12;28.45;102553.72;5034937;28;20117;-55
2023/02/28 10:47:55;;;;;;;11.38;3.58;;;;;;;12.68;25.62;102563.91;5040126;28;20103;-55
2023/02/28 10:50:44;;;;;;;7.50;3.05;;;;;;;14.04;24.14;102574.00;5037854;28;20045;-55
2023/02/28 10:59:25;;;;;;;8.82;3.63;;;;;;;14.33;23.31;102554.63;5089033;27;1164183;-55
2023/02/28 11:01:53;;;;;;;8.13;3.22;;;;;;;14.57;22.84;102551.59;5116948;28;20048;-55
2023/02/28 11:04:35;;;;;;;8.02;3.08;;;;;;;15.16;22.64;102560.59;5110718;28;20497;-56
2023/02/28 11:07:16;;;;;;;7.68;3.15;;;;;;;14.39;23.35;102552.25;5124335;27;20039;-54
2023/02/28 11:09:49;;;;;;;14.57;3.30;;;;;;;15.26;22.41;102560.59;5126869;28;20039;-56
2023/02/28 11:12:30;;;;;;;7.68;3.30;;;;;;;17.32;20.21;102551.59;5116821;28;20043;-56
2023/02/28 11:15:01;;;;;;;7.03;2.97;;;;;;;17.98;20.10;102549.41;5130355;27;20047;-56
2023/02/28 11:17:32;;;;;;;7.93;3.33;;;;;;;17.89;19.23;102553.06;5125624;27;20428;-56
2023/02/28 11:20:03;;;;;;;7.78;3.22;;;;;;;16.55;20.65;102548.44;5129117;27;20046;-56
2023/02/28 11:22:32;;;;;;;;;;;;;;;16.07;22.41;102549.53;5126625;28;20088;-56
2023/02/28 11:25:06;;;;;;;9.23;3.25;;;;;;;18.02;19.75;102550.78;5125014;28;19920;-55
2023/02/28 11:27:38;;;;;;;9.75;3.50;;;;;;;17.86;18.67;102556.03;5108627;28;20064;-55
2023/02/28 11:30:23;;;;;;;8.45;3.08;;;;;;;18.35;19.02;102553.63;5108173;28;20117;-57
2023/02/28 11:32:51;;;;;;;7.47;2.88;;;;;;;18.78;19.66;102551.75;5110182;28;20054;-56
2023/02/28 11:35:24;;;;;;;8.65;3.50;;;;;;;19.25;19.04;102550.34;5105922;28;20287;-57
2023/02/28 11:37:52;;;;;;;7.18;3.17;;;;;;;19.10;18.80;102556.38;5110344;28;20039;-56
2023/02/28 11:40:29;;;;;;;8.02;2.92;;;;;;;19.93;17.43;102549.94;5105988;28;20048;-57
2023/02/28 11:43:25;;;;;;;7.72;3.10;;;;;;;20.03;17.11;102560.53;5110143;28;20044;-56
2023/02/28 11:49:23;;;;;;;8.13;3.30;;;;;;;19.98;17.00;102546.75;5111067;27;20881;-56
2023/02/28 11:52:00;;;;;;;11.38;3.40;;;;;;;20.05;17.07;102566.59;5085962;28;20052;-56
2023/02/28 11:54:39;;;;;;;9.48;3.08;;;;;;;19.82;17.36;102557.56;5089760;28;20052;-57
2023/02/28 11:57:27;;;;;;;7.10;3.00;;;;;;;21.05;16.05;102559.72;5104379;28;20126;-55
2023/02/28 12:00:22;;;;;;;6.93;3.20;;;;;;;19.52;16.84;102560.75;5109206;28;20048;-54
2023/02/28 12:03:28;;;;;;;9.10;3.08;;;;;;;19.04;17.34;102554.34;5110125;28;20413;-56